sensor_id;sensor_type;location;lat;lon;timestamp;pressure;altitude;pressure_sealevel;temperature;humidity
80682;BME280;70045;40.200;44.582;2023-08-30T00:01:46;85929.88;;;19.64;40.58
80682;BME280;70045;40.200;44.582;2023-08-30T00:04:11;85918.84;;;19.60;40.82
80682;BME280;70045;40.200;44.582;2023-08-30T00:06:37;85918.31;;;19.56;40.72
80682;BME280;70045;40.200;44.582;2023-08-30T00:09:08;85914.06;;;19.59;40.89
80682;BME280;70045;40.200;44.582;2023-08-30T00:11:34;85907.34;;;19.57;40.69
80682;BME280;70045;40.200;44.582;2023-08-30T00:14:03;85916.97;;;19.66;40.82
80682;BME280;70045;40.200;44.582;2023-08-30T00:16:29;85912.97;;;19.71;40.65
80682;BME280;70045;40.200;44.582;2023-08-30T00:18:54;85914.53;;;19.83;40.05
80682;BME280;70045;40.200;44.582;2023-08-30T00:21:26;85907.25;;;19.72;40.53
80682;BME280;70045;40.200;44.582;2023-08-30T00:23:52;85913.06;;;19.82;40.34
80682;BME280;70045;40.200;44.582;2023-08-30T00:26:17;85917.41;;;19.85;40.06
80682;BME280;70045;40.200;44.582;2023-08-30T00:28:42;85914.56;;;19.89;40.28
80682;BME280;70045;40.200;44.582;2023-08-30T00:31:08;85904.25;;;19.85;40.35
80682;BME280;70045;40.200;44.582;2023-08-30T00:33:40;85913.38;;;19.90;40.45
80682;BME280;70045;40.200;44.582;2023-08-30T00:36:06;85914.09;;;19.90;40.19
80682;BME280;70045;40.200;44.582;2023-08-30T00:38:33;85928.50;;;19.95;39.81
80682;BME280;70045;40.200;44.582;2023-08-30T00:40:58;85922.25;;;19.92;39.84
80682;BME280;70045;40.200;44.582;2023-08-30T00:43:24;85921.53;;;19.92;39.63
80682;BME280;70045;40.200;44.582;2023-08-30T00:45:59;85934.22;;;19.93;40.11
80682;BME280;70045;40.200;44.582;2023-08-30T00:48:24;85926.28;;;19.88;39.74
80682;BME280;70045;40.200;44.582;2023-08-30T00:50:50;85945.97;;;19.98;40.21
80682;BME280;70045;40.200;44.582;2023-08-30T00:53:15;85944.31;;;20.01;39.79
80682;BME280;70045;40.200;44.582;2023-08-30T00:55:42;85947.22;;;20.08;40.15
80682;BME280;70045;40.200;44.582;2023-08-30T00:58:14;85951.31;;;20.09;40.35
80682;BME280;70045;40.200;44.582;2023-08-30T01:00:40;85932.34;;;20.00;40.03
80682;BME280;70045;40.200;44.582;2023-08-30T01:03:06;85941.97;;;20.08;39.71
80682;BME280;70045;40.200;44.582;2023-08-30T01:05:31;85942.66;;;20.03;40.30
80682;BME280;70045;40.200;44.582;2023-08-30T01:07:56;85960.03;;;19.89;41.68
80682;BME280;70045;40.200;44.582;2023-08-30T01:11:00;85958.63;;;19.73;42.47
80682;BME280;70045;40.200;44.582;2023-08-30T01:13:30;85959.78;;;19.67;42.04
80682;BME280;70045;40.200;44.582;2023-08-30T01:15:58;85968.66;;;19.69;41.48
80682;BME280;70045;40.200;44.582;2023-08-30T01:18:26;85973.91;;;19.69;42.53
80682;BME280;70045;40.200;44.582;2023-08-30T01:21:01;85970.50;;;19.63;42.89
80682;BME280;70045;40.200;44.582;2023-08-30T01:23:47;85976.16;;;19.56;43.34
80682;BME280;70045;40.200;44.582;2023-08-30T01:26:24;85976.38;;;19.52;43.26
80682;BME280;70045;40.200;44.582;2023-08-30T01:28:52;85976.78;;;19.45;43.23
80682;BME280;70045;40.200;44.582;2023-08-30T01:31:27;85975.16;;;19.48;43.31
80682;BME280;70045;40.200;44.582;2023-08-30T01:33:53;85979.47;;;19.51;43.33
80682;BME280;70045;40.200;44.582;2023-08-30T01:36:18;85969.69;;;19.51;43.02
80682;BME280;70045;40.200;44.582;2023-08-30T01:38:44;85983.81;;;19.54;42.66
80682;BME280;70045;40.200;44.582;2023-08-30T01:41:20;85978.81;;;19.56;44.21
80682;BME280;70045;40.200;44.582;2023-08-30T01:43:46;85994.84;;;19.58;42.56
80682;BME280;70045;40.200;44.582;2023-08-30T01:46:13;85993.19;;;19.61;42.61
80682;BME280;70045;40.200;44.582;2023-08-30T01:48:40;85990.09;;;19.62;42.65
80682;BME280;70045;40.200;44.582;2023-08-30T01:51:07;85991.28;;;19.61;42.73
80682;BME280;70045;40.200;44.582;2023-08-30T01:53:39;85994.16;;;19.63;43.57
80682;BME280;70045;40.200;44.582;2023-08-30T01:56:05;86009.69;;;19.61;42.86
80682;BME280;70045;40.200;44.582;2023-08-30T01:58:30;86003.41;;;19.53;42.73
80682;BME280;70045;40.200;44.582;2023-08-30T02:00:56;86011.00;;;19.51;42.92
80682;BME280;70045;40.200;44.582;2023-08-30T02:03:31;86011.69;;;19.46;44.01
80682;BME280;70045;40.200;44.582;2023-08-30T02:06:06;86012.34;;;19.41;43.23
80682;BME280;70045;40.200;44.582;2023-08-30T02:08:43;86010.91;;;19.40;43.83
80682;BME280;70045;40.200;44.582;2023-08-30T02:11:15;86018.78;;;19.40;44.44
80682;BME280;70045;40.200;44.582;2023-08-30T02:13:54;86012.88;;;19.45;44.29
80682;BME280;70045;40.200;44.582;2023-08-30T02:16:23;86024.56;;;19.44;43.68
80682;BME280;70045;40.200;44.582;2023-08-30T02:18:50;86005.06;;;19.30;44.18
80682;BME280;70045;40.200;44.582;2023-08-30T02:21:16;86023.78;;;19.37;43.52
80682;BME280;70045;40.200;44.582;2023-08-30T02:23:41;86027.78;;;19.33;43.77
80682;BME280;70045;40.200;44.582;2023-08-30T02:26:20;86020.75;;;19.24;44.52
80682;BME280;70045;40.200;44.582;2023-08-30T02:28:46;86022.59;;;19.18;44.34
80682;BME280;70045;40.200;44.582;2023-08-30T02:31:11;86030.47;;;19.18;44.12
80682;BME280;70045;40.200;44.582;2023-08-30T02:33:37;86021.63;;;19.15;43.98
80682;BME280;70045;40.200;44.582;2023-08-30T02:36:03;86027.34;;;19.14;44.48
80682;BME280;70045;40.200;44.582;2023-08-30T02:38:36;86031.22;;;19.18;44.43
80682;BME280;70045;40.200;44.582;2023-08-30T02:41:02;86034.53;;;18.98;44.78
80682;BME280;70045;40.200;44.582;2023-08-30T02:43:27;86045.81;;;18.84;45.81
80682;BME280;70045;40.200;44.582;2023-08-30T02:45:52;86050.81;;;18.82;45.13
80682;BME280;70045;40.200;44.582;2023-08-30T02:48:18;86045.19;;;18.89;45.76
80682;BME280;70045;40.200;44.582;2023-08-30T02:50:52;86049.88;;;18.85;45.89
80682;BME280;70045;40.200;44.582;2023-08-30T02:53:17;86048.72;;;18.86;45.75
80682;BME280;70045;40.200;44.582;2023-08-30T02:55:42;86054.78;;;18.92;44.98
80682;BME280;70045;40.200;44.582;2023-08-30T02:58:08;86057.84;;;18.91;45.77
80682;BME280;70045;40.200;44.582;2023-08-30T03:00:33;86064.16;;;18.99;45.17
80682;BME280;70045;40.200;44.582;2023-08-30T03:03:08;86070.22;;;19.05;46.31
80682;BME280;70045;40.200;44.582;2023-08-30T03:05:33;86073.56;;;19.06;45.50
80682;BME280;70045;40.200;44.582;2023-08-30T03:07:59;86075.03;;;19.07;45.94
80682;BME280;70045;40.200;44.582;2023-08-30T03:10:24;86085.84;;;19.14;45.33
80682;BME280;70045;40.200;44.582;2023-08-30T03:12:50;86082.66;;;19.25;45.15
80682;BME280;70045;40.200;44.582;2023-08-30T03:15:25;86068.19;;;19.35;45.96
80682;BME280;70045;40.200;44.582;2023-08-30T03:17:50;86079.38;;;19.51;45.09
80682;BME280;70045;40.200;44.582;2023-08-30T03:20:16;86075.16;;;19.59;44.95
80682;BME280;70045;40.200;44.582;2023-08-30T03:22:41;86075.03;;;19.68;45.06
80682;BME280;70045;40.200;44.582;2023-08-30T03:25:07;86080.81;;;19.72;45.12
80682;BME280;70045;40.200;44.582;2023-08-30T03:27:44;86081.63;;;19.79;45.40
80682;BME280;70045;40.200;44.582;2023-08-30T03:30:10;86073.00;;;19.78;44.83
80682;BME280;70045;40.200;44.582;2023-08-30T03:32:36;86094.66;;;19.88;45.02
80682;BME280;70045;40.200;44.582;2023-08-30T03:35:02;86088.97;;;19.95;45.09
80682;BME280;70045;40.200;44.582;2023-08-30T03:37:27;86091.25;;;20.08;45.02
80682;BME280;70045;40.200;44.582;2023-08-30T03:40:01;86094.47;;;20.18;45.60
80682;BME280;70045;40.200;44.582;2023-08-30T03:42:26;86093.13;;;20.28;44.86
80682;BME280;70045;40.200;44.582;2023-08-30T03:44:52;86090.03;;;20.29;44.78
80682;BME280;70045;40.200;44.582;2023-08-30T03:47:17;86090.06;;;20.35;44.61
80682;BME280;70045;40.200;44.582;2023-08-30T03:49:43;86098.53;;;20.45;44.93
80682;BME280;70045;40.200;44.582;2023-08-30T03:52:18;86094.75;;;20.51;45.14
80682;BME280;70045;40.200;44.582;2023-08-30T03:54:43;86094.88;;;20.63;44.55
80682;BME280;70045;40.200;44.582;2023-08-30T03:57:09;86106.94;;;20.75;44.22
80682;BME280;70045;40.200;44.582;2023-08-30T03:59:34;86099.78;;;20.81;44.35
80682;BME280;70045;40.200;44.582;2023-08-30T04:01:59;86104.19;;;20.90;44.42
80682;BME280;70045;40.200;44.582;2023-08-30T04:04:33;86110.94;;;20.97;45.11
80682;BME280;70045;40.200;44.582;2023-08-30T04:06:59;86109.06;;;21.03;44.07
80682;BME280;70045;40.200;44.582;2023-08-30T04:09:24;86104.28;;;21.07;44.07
80682;BME280;70045;40.200;44.582;2023-08-30T04:11:49;86108.66;;;21.16;43.69
80682;BME280;70045;40.200;44.582;2023-08-30T04:14:15;86098.88;;;21.22;43.18
80682;BME280;70045;40.200;44.582;2023-08-30T04:16:50;86107.53;;;21.28;43.29
80682;BME280;70045;40.200;44.582;2023-08-30T04:19:15;86114.97;;;21.30;43.36
80682;BME280;70045;40.200;44.582;2023-08-30T04:21:40;86114.97;;;21.30;43.70
80682;BME280;70045;40.200;44.582;2023-08-30T04:24:06;86116.44;;;21.31;43.50
80682;BME280;70045;40.200;44.582;2023-08-30T04:26:31;86116.91;;;21.35;43.58
80682;BME280;70045;40.200;44.582;2023-08-30T04:29:06;86115.75;;;21.41;43.84
80682;BME280;70045;40.200;44.582;2023-08-30T04:31:31;86128.47;;;21.43;43.61
80682;BME280;70045;40.200;44.582;2023-08-30T04:33:57;86129.75;;;21.48;43.90
80682;BME280;70045;40.200;44.582;2023-08-30T04:36:22;86129.06;;;21.53;43.41
80682;BME280;70045;40.200;44.582;2023-08-30T04:38:48;86126.19;;;21.56;43.13
80682;BME280;70045;40.200;44.582;2023-08-30T04:41:22;86131.03;;;21.63;43.57
80682;BME280;70045;40.200;44.582;2023-08-30T04:43:47;86128.41;;;21.69;43.29
80682;BME280;70045;40.200;44.582;2023-08-30T04:46:13;86127.72;;;21.80;43.18
80682;BME280;70045;40.200;44.582;2023-08-30T04:48:38;86122.00;;;21.87;42.76
80682;BME280;70045;40.200;44.582;2023-08-30T04:51:04;86121.06;;;21.96;42.82
80682;BME280;70045;40.200;44.582;2023-08-30T04:53:38;86125.66;;;22.01;42.71
80682;BME280;70045;40.200;44.582;2023-08-30T04:56:14;86118.72;;;22.04;42.53
80682;BME280;70045;40.200;44.582;2023-08-30T04:58:39;86117.25;;;22.03;42.36
80682;BME280;70045;40.200;44.582;2023-08-30T05:01:05;86126.19;;;22.16;41.64
80682;BME280;70045;40.200;44.582;2023-08-30T05:03:30;86124.28;;;22.23;41.71
80682;BME280;70045;40.200;44.582;2023-08-30T05:06:02;86131.53;;;22.28;41.82
80682;BME280;70045;40.200;44.582;2023-08-30T05:08:28;86130.09;;;22.32;41.32
80682;BME280;70045;40.200;44.582;2023-08-30T05:10:54;86132.28;;;22.40;41.80
80682;BME280;70045;40.200;44.582;2023-08-30T05:13:19;86136.63;;;22.48;41.24
80682;BME280;70045;40.200;44.582;2023-08-30T05:15:54;86143.81;;;22.48;41.13
80682;BME280;70045;40.200;44.582;2023-08-30T05:18:19;86141.44;;;22.55;41.58
80682;BME280;70045;40.200;44.582;2023-08-30T05:20:44;86148.19;;;22.62;41.33
80682;BME280;70045;40.200;44.582;2023-08-30T05:23:10;86155.84;;;22.60;41.52
80682;BME280;70045;40.200;44.582;2023-08-30T05:25:35;86157.53;;;22.63;41.28
80682;BME280;70045;40.200;44.582;2023-08-30T05:28:07;86162.09;;;22.68;41.29
80682;BME280;70045;40.200;44.582;2023-08-30T05:30:32;86164.53;;;22.78;41.01
80682;BME280;70045;40.200;44.582;2023-08-30T05:32:58;86160.22;;;22.86;40.98
80682;BME280;70045;40.200;44.582;2023-08-30T05:35:23;86166.25;;;22.92;41.17
80682;BME280;70045;40.200;44.582;2023-08-30T05:37:58;86169.84;;;23.00;40.35
80682;BME280;70045;40.200;44.582;2023-08-30T05:40:23;86169.34;;;22.96;40.18
80682;BME280;70045;40.200;44.582;2023-08-30T05:42:48;86166.22;;;23.03;40.24
80682;BME280;70045;40.200;44.582;2023-08-30T05:45:14;86175.91;;;23.18;40.29
80682;BME280;70045;40.200;44.582;2023-08-30T05:47:39;86179.00;;;23.27;39.59
80682;BME280;70045;40.200;44.582;2023-08-30T05:50:14;86182.84;;;23.43;39.38
80682;BME280;70045;40.200;44.582;2023-08-30T05:52:39;86172.50;;;23.51;39.74
80682;BME280;70045;40.200;44.582;2023-08-30T05:55:05;86176.81;;;23.65;39.43
80682;BME280;70045;40.200;44.582;2023-08-30T05:57:30;86177.78;;;23.68;38.61
80682;BME280;70045;40.200;44.582;2023-08-30T05:59:56;86182.81;;;23.66;38.81
80682;BME280;70045;40.200;44.582;2023-08-30T06:02:31;86183.06;;;23.74;38.13
80682;BME280;70045;40.200;44.582;2023-08-30T06:04:56;86188.84;;;23.83;38.42
80682;BME280;70045;40.200;44.582;2023-08-30T06:07:22;86177.06;;;23.73;38.28
80682;BME280;70045;40.200;44.582;2023-08-30T06:09:47;86183.53;;;23.78;38.41
80682;BME280;70045;40.200;44.582;2023-08-30T06:12:12;86182.56;;;23.92;38.53
80682;BME280;70045;40.200;44.582;2023-08-30T06:14:47;86193.59;;;24.08;37.00
80682;BME280;70045;40.200;44.582;2023-08-30T06:17:12;86186.63;;;24.10;37.26
80682;BME280;70045;40.200;44.582;2023-08-30T06:19:38;86176.03;;;24.10;37.39
80682;BME280;70045;40.200;44.582;2023-08-30T06:22:03;86187.28;;;24.28;37.34
80682;BME280;70045;40.200;44.582;2023-08-30T06:24:29;86186.09;;;24.29;37.63
80682;BME280;70045;40.200;44.582;2023-08-30T06:27:03;86189.88;;;24.39;37.23
80682;BME280;70045;40.200;44.582;2023-08-30T06:29:29;86200.22;;;24.42;37.54
80682;BME280;70045;40.200;44.582;2023-08-30T06:31:54;86191.31;;;24.51;36.18
80682;BME280;70045;40.200;44.582;2023-08-30T06:34:19;86195.88;;;24.51;37.20
80682;BME280;70045;40.200;44.582;2023-08-30T06:36:45;86188.13;;;24.64;37.32
80682;BME280;70045;40.200;44.582;2023-08-30T06:39:22;86190.97;;;24.72;36.95
80682;BME280;70045;40.200;44.582;2023-08-30T06:41:48;86195.00;;;24.84;36.85
80682;BME280;70045;40.200;44.582;2023-08-30T06:44:13;86193.59;;;24.83;36.62
80682;BME280;70045;40.200;44.582;2023-08-30T06:46:39;86188.72;;;24.87;37.02
80682;BME280;70045;40.200;44.582;2023-08-30T06:49:05;86195.97;;;24.87;36.38
80682;BME280;70045;40.200;44.582;2023-08-30T06:51:40;86202.97;;;24.84;35.82
80682;BME280;70045;40.200;44.582;2023-08-30T06:54:05;86205.13;;;24.91;36.33
80682;BME280;70045;40.200;44.582;2023-08-30T06:56:31;86188.59;;;25.10;36.25
80682;BME280;70045;40.200;44.582;2023-08-30T06:58:59;86195.28;;;25.22;36.00
80682;BME280;70045;40.200;44.582;2023-08-30T07:01:24;86189.72;;;25.26;35.76
80682;BME280;70045;40.200;44.582;2023-08-30T07:03:59;86183.47;;;25.23;35.73
80682;BME280;70045;40.200;44.582;2023-08-30T07:06:24;86183.16;;;25.32;35.68
80682;BME280;70045;40.200;44.582;2023-08-30T07:08:49;86193.50;;;25.42;36.03
80682;BME280;70045;40.200;44.582;2023-08-30T07:11:15;86188.34;;;25.49;35.30
80682;BME280;70045;40.200;44.582;2023-08-30T07:13:40;86186.88;;;25.54;35.32
80682;BME280;70045;40.200;44.582;2023-08-30T07:16:15;86190.66;;;25.64;34.87
80682;BME280;70045;40.200;44.582;2023-08-30T07:18:40;86191.81;;;25.69;34.43
80682;BME280;70045;40.200;44.582;2023-08-30T07:21:06;86181.31;;;25.82;34.36
80682;BME280;70045;40.200;44.582;2023-08-30T07:23:31;86180.13;;;25.83;34.16
80682;BME280;70045;40.200;44.582;2023-08-30T07:25:56;86191.38;;;25.95;34.47
80682;BME280;70045;40.200;44.582;2023-08-30T07:28:41;86180.66;;;26.06;33.45
80682;BME280;70045;40.200;44.582;2023-08-30T07:31:07;86187.16;;;26.05;33.51
80682;BME280;70045;40.200;44.582;2023-08-30T07:33:32;86175.34;;;26.06;33.02
80682;BME280;70045;40.200;44.582;2023-08-30T07:35:57;86178.19;;;26.08;33.58
80682;BME280;70045;40.200;44.582;2023-08-30T07:38:23;86180.66;;;26.06;33.92
80682;BME280;70045;40.200;44.582;2023-08-30T07:40:58;86185.34;;;26.19;33.23
80682;BME280;70045;40.200;44.582;2023-08-30T07:43:23;86181.34;;;26.31;33.81
80682;BME280;70045;40.200;44.582;2023-08-30T07:45:48;86187.97;;;26.44;33.38
80682;BME280;70045;40.200;44.582;2023-08-30T07:48:14;86176.56;;;26.49;32.88
80682;BME280;70045;40.200;44.582;2023-08-30T07:50:39;86173.41;;;26.50;32.68
80682;BME280;70045;40.200;44.582;2023-08-30T07:53:14;86179.16;;;26.55;32.46
80682;BME280;70045;40.200;44.582;2023-08-30T07:55:39;86188.53;;;26.61;32.50
80682;BME280;70045;40.200;44.582;2023-08-30T07:58:04;86187.22;;;26.68;31.90
80682;BME280;70045;40.200;44.582;2023-08-30T08:00:30;86182.16;;;26.70;32.73
80682;BME280;70045;40.200;44.582;2023-08-30T08:02:55;86180.22;;;26.71;32.56
80682;BME280;70045;40.200;44.582;2023-08-30T08:05:30;86183.44;;;26.82;32.11
80682;BME280;70045;40.200;44.582;2023-08-30T08:07:59;86179.63;;;26.97;31.72
80682;BME280;70045;40.200;44.582;2023-08-30T08:10:25;86173.03;;;27.03;31.99
80682;BME280;70045;40.200;44.582;2023-08-30T08:12:50;86179.91;;;27.12;31.85
80682;BME280;70045;40.200;44.582;2023-08-30T08:15:16;86175.31;;;27.13;31.54
80682;BME280;70045;40.200;44.582;2023-08-30T08:17:51;86175.72;;;27.36;30.90
80682;BME280;70045;40.200;44.582;2023-08-30T08:20:16;86180.25;;;27.41;31.20
80682;BME280;70045;40.200;44.582;2023-08-30T08:22:42;86177.09;;;27.42;30.01
80682;BME280;70045;40.200;44.582;2023-08-30T08:25:07;86171.81;;;27.56;30.80
80682;BME280;70045;40.200;44.582;2023-08-30T08:27:33;86169.03;;;27.48;30.64
80682;BME280;70045;40.200;44.582;2023-08-30T08:30:08;86171.22;;;27.63;30.47
80682;BME280;70045;40.200;44.582;2023-08-30T08:32:33;86178.69;;;27.65;29.65
80682;BME280;70045;40.200;44.582;2023-08-30T08:34:59;86179.44;;;27.78;30.22
80682;BME280;70045;40.200;44.582;2023-08-30T08:37:24;86174.75;;;27.85;29.73
80682;BME280;70045;40.200;44.582;2023-08-30T08:39:50;86165.56;;;27.99;29.99
80682;BME280;70045;40.200;44.582;2023-08-30T08:42:24;86164.25;;;28.46;28.50
80682;BME280;70045;40.200;44.582;2023-08-30T08:44:53;86165.88;;;28.89;27.87
80682;BME280;70045;40.200;44.582;2023-08-30T08:47:20;86166.13;;;29.46;26.99
80682;BME280;70045;40.200;44.582;2023-08-30T08:49:46;86171.56;;;30.17;25.52
80682;BME280;70045;40.200;44.582;2023-08-30T08:52:14;86163.41;;;30.88;25.91
80682;BME280;70045;40.200;44.582;2023-08-30T08:54:49;86168.06;;;31.40;24.59
80682;BME280;70045;40.200;44.582;2023-08-30T08:57:14;86166.75;;;31.77;23.13
80682;BME280;70045;40.200;44.582;2023-08-30T08:59:40;86178.91;;;32.47;23.95
80682;BME280;70045;40.200;44.582;2023-08-30T09:02:06;86171.09;;;33.13;22.92
80682;BME280;70045;40.200;44.582;2023-08-30T09:04:32;86171.50;;;33.50;22.64
80682;BME280;70045;40.200;44.582;2023-08-30T09:07:00;86173.78;;;33.62;20.44
80682;BME280;70045;40.200;44.582;2023-08-30T09:09:26;86170.56;;;34.21;21.57
80682;BME280;70045;40.200;44.582;2023-08-30T09:11:51;86162.47;;;34.46;20.20
80682;BME280;70045;40.200;44.582;2023-08-30T09:14:18;86168.44;;;34.62;20.54
80682;BME280;70045;40.200;44.582;2023-08-30T09:16:54;86162.47;;;34.89;19.87
80682;BME280;70045;40.200;44.582;2023-08-30T09:19:22;86169.16;;;35.23;18.82
80682;BME280;70045;40.200;44.582;2023-08-30T09:21:55;86165.56;;;35.65;19.05
80682;BME280;70045;40.200;44.582;2023-08-30T09:24:21;86164.94;;;35.74;19.91
80682;BME280;70045;40.200;44.582;2023-08-30T09:26:53;86161.59;;;35.84;17.86
80682;BME280;70045;40.200;44.582;2023-08-30T09:29:21;86162.66;;;36.35;19.78
80682;BME280;70045;40.200;44.582;2023-08-30T09:31:52;86158.56;;;37.10;17.02
80682;BME280;70045;40.200;44.582;2023-08-30T09:34:22;86136.09;;;37.56;16.11
80682;BME280;70045;40.200;44.582;2023-08-30T09:36:48;86156.25;;;37.94;16.17
80682;BME280;70045;40.200;44.582;2023-08-30T09:39:14;86155.91;;;38.10;16.38
80682;BME280;70045;40.200;44.582;2023-08-30T09:41:44;86151.78;;;38.18;16.13
80682;BME280;70045;40.200;44.582;2023-08-30T09:44:18;86155.78;;;38.49;15.19
80682;BME280;70045;40.200;44.582;2023-08-30T09:49:10;86149.31;;;38.64;15.97
80682;BME280;70045;40.200;44.582;2023-08-30T09:51:39;86152.00;;;38.73;16.25
80682;BME280;70045;40.200;44.582;2023-08-30T09:54:05;86155.66;;;38.78;16.05
80682;BME280;70045;40.200;44.582;2023-08-30T09:56:35;86151.22;;;38.83;15.91
80682;BME280;70045;40.200;44.582;2023-08-30T09:59:02;86149.97;;;39.05;15.94
80682;BME280;70045;40.200;44.582;2023-08-30T10:01:28;86154.50;;;39.03;15.32
80682;BME280;70045;40.200;44.582;2023-08-30T10:03:56;86153.28;;;39.37;15.19
80682;BME280;70045;40.200;44.582;2023-08-30T10:06:24;86147.88;;;39.37;14.74
80682;BME280;70045;40.200;44.582;2023-08-30T10:08:53;86146.56;;;39.60;15.00
80682;BME280;70045;40.200;44.582;2023-08-30T10:11:18;86146.94;;;39.66;14.83
80682;BME280;70045;40.200;44.582;2023-08-30T10:13:44;86146.63;;;39.83;15.18
80682;BME280;70045;40.200;44.582;2023-08-30T10:16:14;86145.91;;;39.71;14.57
80682;BME280;70045;40.200;44.582;2023-08-30T10:18:41;86136.44;;;39.72;14.44
80682;BME280;70045;40.200;44.582;2023-08-30T10:21:12;86141.09;;;39.81;14.72
80682;BME280;70045;40.200;44.582;2023-08-30T10:23:38;86126.78;;;40.14;14.74
80682;BME280;70045;40.200;44.582;2023-08-30T10:26:06;86135.28;;;40.67;13.46
80682;BME280;70045;40.200;44.582;2023-08-30T10:28:32;86137.78;;;40.75;12.88
80682;BME280;70045;40.200;44.582;2023-08-30T10:30:59;86139.88;;;41.00;13.65
80682;BME280;70045;40.200;44.582;2023-08-30T10:33:27;86129.41;;;40.83;12.58
80682;BME280;70045;40.200;44.582;2023-08-30T10:35:53;86133.66;;;40.39;13.63
80682;BME280;70045;40.200;44.582;2023-08-30T10:38:28;86133.72;;;41.12;13.83
80682;BME280;70045;40.200;44.582;2023-08-30T10:40:54;86131.91;;;41.66;13.86
80682;BME280;70045;40.200;44.582;2023-08-30T10:43:33;86131.34;;;41.67;12.51
80682;BME280;70045;40.200;44.582;2023-08-30T10:46:03;86115.88;;;41.58;12.37
80682;BME280;70045;40.200;44.582;2023-08-30T10:48:39;86118.97;;;42.04;11.86
80682;BME280;70045;40.200;44.582;2023-08-30T10:51:19;86115.41;;;42.41;12.04
80682;BME280;70045;40.200;44.582;2023-08-30T10:54:00;86129.97;;;42.45;11.82
80682;BME280;70045;40.200;44.582;2023-08-30T10:56:29;86118.28;;;42.57;11.92
80682;BME280;70045;40.200;44.582;2023-08-30T10:58:55;86124.75;;;42.77;11.95
80682;BME280;70045;40.200;44.582;2023-08-30T11:01:21;86121.22;;;42.75;12.04
80682;BME280;70045;40.200;44.582;2023-08-30T11:03:46;86123.34;;;42.62;12.39
80682;BME280;70045;40.200;44.582;2023-08-30T11:06:15;86114.00;;;42.26;11.82
80682;BME280;70045;40.200;44.582;2023-08-30T11:08:41;86117.59;;;42.70;12.44
80682;BME280;70045;40.200;44.582;2023-08-30T11:11:07;86111.22;;;43.07;11.90
80682;BME280;70045;40.200;44.582;2023-08-30T11:13:33;86112.28;;;43.30;11.23
80682;BME280;70045;40.200;44.582;2023-08-30T11:16:02;86115.19;;;43.61;11.18
80682;BME280;70045;40.200;44.582;2023-08-30T11:18:30;86111.81;;;43.77;10.96
80682;BME280;70045;40.200;44.582;2023-08-30T11:21:02;86109.63;;;44.19;10.32
80682;BME280;70045;40.200;44.582;2023-08-30T11:23:28;86119.59;;;44.44;10.92
80682;BME280;70045;40.200;44.582;2023-08-30T11:25:54;86106.84;;;43.73;11.52
80682;BME280;70045;40.200;44.582;2023-08-30T11:28:25;86109.34;;;43.83;10.68
80682;BME280;70045;40.200;44.582;2023-08-30T11:30:54;86102.84;;;43.90;10.74
80682;BME280;70045;40.200;44.582;2023-08-30T11:33:21;86096.25;;;43.95;11.06
80682;BME280;70045;40.200;44.582;2023-08-30T11:35:49;86098.47;;;43.99;10.50
80682;BME280;70045;40.200;44.582;2023-08-30T11:38:15;86119.25;;;43.90;10.37
80682;BME280;70045;40.200;44.582;2023-08-30T11:40:40;86112.25;;;43.87;11.30
80682;BME280;70045;40.200;44.582;2023-08-30T11:43:09;86105.56;;;43.60;10.46
80682;BME280;70045;40.200;44.582;2023-08-30T11:45:35;86109.00;;;42.62;11.55
80682;BME280;70045;40.200;44.582;2023-08-30T11:48:01;86104.28;;;43.04;11.33
80682;BME280;70045;40.200;44.582;2023-08-30T11:50:27;86108.88;;;43.29;11.34
80682;BME280;70045;40.200;44.582;2023-08-30T11:52:53;86102.00;;;44.02;11.07
80682;BME280;70045;40.200;44.582;2023-08-30T11:55:21;86106.28;;;44.52;10.14
80682;BME280;70045;40.200;44.582;2023-08-30T11:57:50;86100.28;;;44.72;10.24
80682;BME280;70045;40.200;44.582;2023-08-30T12:00:18;86096.78;;;44.53;10.15
80682;BME280;70045;40.200;44.582;2023-08-30T12:02:45;86108.38;;;43.19;10.79
80682;BME280;70045;40.200;44.582;2023-08-30T12:05:14;86103.50;;;43.45;11.21
80682;BME280;70045;40.200;44.582;2023-08-30T12:07:40;86107.09;;;43.06;10.95
80682;BME280;70045;40.200;44.582;2023-08-30T12:10:12;86098.19;;;42.92;11.22
80682;BME280;70045;40.200;44.582;2023-08-30T12:12:43;86103.41;;;43.43;11.22
80682;BME280;70045;40.200;44.582;2023-08-30T12:15:13;86093.97;;;44.06;10.38
80682;BME280;70045;40.200;44.582;2023-08-30T12:17:41;86093.94;;;44.51;10.70
80682;BME280;70045;40.200;44.582;2023-08-30T12:20:14;86097.13;;;44.78;10.71
80682;BME280;70045;40.200;44.582;2023-08-30T12:22:40;86082.50;;;44.71;10.97
80682;BME280;70045;40.200;44.582;2023-08-30T12:25:22;86096.94;;;45.05;9.61
80682;BME280;70045;40.200;44.582;2023-08-30T12:27:50;86083.00;;;44.83;9.33
80682;BME280;70045;40.200;44.582;2023-08-30T12:30:16;86098.53;;;44.47;10.28
80682;BME280;70045;40.200;44.582;2023-08-30T12:32:43;86088.50;;;44.67;9.69
80682;BME280;70045;40.200;44.582;2023-08-30T12:35:08;86095.16;;;44.96;9.92
80682;BME280;70045;40.200;44.582;2023-08-30T12:37:34;86091.56;;;44.75;9.77
80682;BME280;70045;40.200;44.582;2023-08-30T12:40:02;86096.59;;;44.65;9.95
80682;BME280;70045;40.200;44.582;2023-08-30T12:42:27;86090.94;;;42.96;11.09
80682;BME280;70045;40.200;44.582;2023-08-30T12:44:53;86102.06;;;41.05;12.40
80682;BME280;70045;40.200;44.582;2023-08-30T12:47:18;86076.09;;;39.16;13.71
80682;BME280;70045;40.200;44.582;2023-08-30T12:49:43;86091.72;;;37.40;15.57
80682;BME280;70045;40.200;44.582;2023-08-30T12:52:12;86097.38;;;36.66;17.13
80682;BME280;70045;40.200;44.582;2023-08-30T12:54:37;86102.47;;;37.79;15.40
80682;BME280;70045;40.200;44.582;2023-08-30T12:57:03;86101.41;;;39.09;14.82